Time;durP1;ratioP1;P1;durP2;ratioP2;P2;SDS_P1;SDS_P2;PMS_P1;PMS_P2;Temp;Humidity;BMP_temperature;BMP_pressure;BME280_temperature;BME280_humidity;BME280_pressure;Samples;Min_cycle;Max_cycle;Signal;HPM_P1;HPM_P2
2021/01/30 00:02:30;;;;;;;35.30;18.65;;;22.50;28.20;;;;;;6173528;27;83470;-64
2021/01/30 00:05:31;;;;;;;32.00;17.17;;;22.50;28.20;;;;;;6163204;28;83824;-64
2021/01/30 00:08:31;;;;;;;32.90;16.85;;;22.50;28.30;;;;;;6149862;28;83823;-65
2021/01/30 00:11:32;;;;;;;33.85;18.02;;;22.40;28.20;;;;;;6155444;28;83440;-65
2021/01/30 00:14:32;;;;;;;33.25;16.65;;;22.40;28.30;;;;;;6169122;28;83200;-65
2021/01/30 00:17:33;;;;;;;28.13;15.98;;;22.40;28.30;;;;;;6168734;27;85438;-64
2021/01/30 00:20:34;;;;;;;32.50;17.42;;;22.50;28.30;;;;;;6175198;28;83275;-64
2021/01/30 00:23:35;;;;;;;36.10;17.13;;;22.40;28.30;;;;;;6155246;28;83249;-64
2021/01/30 00:26:35;;;;;;;33.25;17.83;;;22.40;28.40;;;;;;6161094;28;83265;-64
2021/01/30 00:29:36;;;;;;;31.17;17.00;;;22.40;28.20;;;;;;6172948;27;83474;-64
2021/01/30 00:32:36;;;;;;;31.13;16.05;;;22.40;28.30;;;;;;6175114;27;83404;-64
2021/01/30 00:35:37;;;;;;;29.25;15.73;;;22.40;28.30;;;;;;6173541;28;83385;-63
2021/01/30 00:38:37;;;;;;;28.27;15.93;;;22.40;28.40;;;;;;6173012;28;83590;-63
2021/01/30 00:41:38;;;;;;;33.60;17.00;;;22.40;28.40;;;;;;6160470;28;84520;-64
2021/01/30 00:44:38;;;;;;;31.58;16.77;;;22.30;28.30;;;;;;6149766;28;83854;-65
2021/01/30 00:47:39;;;;;;;30.13;15.18;;;22.30;28.40;;;;;;6161671;28;82930;-64
2021/01/30 00:50:40;;;;;;;28.40;16.25;;;22.30;28.30;;;;;;6172665;28;83454;-64
2021/01/30 00:53:40;;;;;;;32.33;16.75;;;22.30;28.30;;;;;;6172399;28;84012;-65
2021/01/30 00:56:41;;;;;;;29.35;15.15;;;22.30;28.60;;;;;;6153751;28;84132;-64
2021/01/30 00:59:42;;;;;;;29.58;15.60;;;22.30;28.40;;;;;;6173574;28;85645;-64
2021/01/30 01:02:43;;;;;;;30.85;15.35;;;22.30;28.30;;;;;;6158390;27;83269;-64
2021/01/30 01:05:44;;;;;;;30.02;15.50;;;22.30;28.30;;;;;;6150506;28;83731;-64
2021/01/30 01:08:45;;;;;;;27.20;14.82;;;22.30;28.30;;;;;;6173592;28;83319;-64
2021/01/30 01:11:45;;;;;;;25.38;14.65;;;22.30;28.30;;;;;;6173602;27;83367;-64
2021/01/30 01:14:46;;;;;;;28.00;14.52;;;22.20;28.20;;;;;;6172509;28;84059;-64
2021/01/30 01:17:46;;;;;;;26.08;14.05;;;22.20;28.30;;;;;;6161296;27;84453;-64
2021/01/30 01:20:47;;;;;;;24.13;13.88;;;22.30;28.30;;;;;;6148158;28;84300;-64
2021/01/30 01:23:47;;;;;;;24.33;14.10;;;22.30;28.30;;;;;;6146100;28;84044;-64
2021/01/30 01:26:48;;;;;;;27.38;13.85;;;22.20;28.20;;;;;;6145845;28;82886;-64
2021/01/30 01:29:48;;;;;;;25.88;14.45;;;22.20;28.20;;;;;;6147534;28;84917;-64
2021/01/30 01:32:49;;;;;;;24.95;13.13;;;22.20;28.20;;;;;;6149274;28;83458;-64
2021/01/30 01:35:49;;;;;;;24.90;12.73;;;22.20;28.40;;;;;;6161955;28;83007;-64
2021/01/30 01:38:50;;;;;;;26.73;13.25;;;22.20;28.30;;;;;;6173824;27;83495;-64
2021/01/30 01:41:51;;;;;;;30.90;14.25;;;22.20;28.40;;;;;;6173826;28;83733;-64
2021/01/30 01:44:51;;;;;;;22.45;13.10;;;22.20;28.40;;;;;;6173411;28;83370;-64
2021/01/30 01:47:52;;;;;;;28.00;14.65;;;22.20;28.30;;;;;;6169235;27;83308;-64
2021/01/30 01:50:52;;;;;;;25.73;13.00;;;22.20;28.40;;;;;;6173705;28;85108;-64
2021/01/30 01:53:53;;;;;;;27.70;13.85;;;22.20;28.30;;;;;;6161604;27;83411;-64
2021/01/30 01:56:53;;;;;;;25.48;14.15;;;22.20;28.30;;;;;;6164803;28;83961;-64
2021/01/30 01:59:54;;;;;;;24.48;14.13;;;22.20;28.30;;;;;;6176720;28;83370;-64
2021/01/30 02:02:54;;;;;;;28.35;14.57;;;22.20;28.30;;;;;;6175272;28;86130;-65
2021/01/30 02:05:55;;;;;;;24.13;13.63;;;22.20;28.40;;;;;;6169609;27;84625;-64
2021/01/30 02:08:55;;;;;;;26.00;14.32;;;22.20;28.30;;;;;;6163399;28;83047;-64
2021/01/30 02:11:56;;;;;;;33.97;14.45;;;22.20;28.40;;;;;;6152884;28;84591;-65
2021/01/30 02:14:56;;;;;;;26.50;14.00;;;22.20;28.30;;;;;;6165752;28;83913;-65
2021/01/30 02:17:57;;;;;;;30.90;14.73;;;22.20;28.20;;;;;;6152833;27;83221;-65
2021/01/30 02:20:58;;;;;;;29.38;14.25;;;22.20;28.10;;;;;;6155029;28;83279;-65
2021/01/30 02:23:58;;;;;;;27.42;14.77;;;22.20;28.30;;;;;;6166592;28;83435;-66
2021/01/30 02:26:59;;;;;;;25.33;15.02;;;22.20;28.50;;;;;;6173984;27;83506;-65
2021/01/30 02:29:59;;;;;;;28.73;16.33;;;22.20;28.70;;;;;;6175439;28;84087;-65
2021/01/30 02:33:00;;;;;;;28.83;14.98;;;22.20;28.70;;;;;;6173896;27;83635;-65
2021/01/30 02:36:00;;;;;;;24.27;13.35;;;22.10;28.70;;;;;;6160658;28;83563;-64
2021/01/30 02:39:01;;;;;;;27.50;14.48;;;22.20;28.80;;;;;;6156781;28;83382;-64
2021/01/30 02:42:01;;;;;;;28.60;15.50;;;22.10;28.80;;;;;;6176098;28;85903;-64
2021/01/30 02:45:02;;;;;;;28.98;14.75;;;22.10;28.70;;;;;;6173691;28;83131;-66
2021/01/30 02:48:02;;;;;;;30.45;14.68;;;22.10;28.70;;;;;;6165226;27;84199;-66
2021/01/30 02:51:03;;;;;;;29.13;15.45;;;22.10;29.30;;;;;;6173904;28;83263;-66
2021/01/30 02:54:03;;;;;;;30.13;15.25;;;22.10;28.80;;;;;;6135220;28;83283;-65
2021/01/30 02:57:04;;;;;;;26.95;14.02;;;22.10;28.80;;;;;;6144345;28;83548;-66
2021/01/30 03:00:04;;;;;;;28.38;14.95;;;22.10;28.70;;;;;;6165617;28;83173;-66
2021/01/30 03:03:05;;;;;;;30.08;15.90;;;22.10;28.70;;;;;;6174259;28;83211;-65
2021/01/30 03:06:05;;;;;;;26.25;14.27;;;22.00;28.60;;;;;;6167734;28;86126;-65
2021/01/30 03:09:06;;;;;;;26.65;13.73;;;22.10;28.70;;;;;;6175935;27;82900;-65
2021/01/30 03:12:06;;;;;;;26.65;14.13;;;22.10;28.80;;;;;;6156480;27;83619;-64
2021/01/30 03:15:07;;;;;;;31.73;15.40;;;22.10;28.80;;;;;;6158736;28;83744;-66
2021/01/30 03:18:07;;;;;;;26.27;14.45;;;22.10;28.80;;;;;;6175073;28;84169;-65
2021/01/30 03:21:08;;;;;;;30.95;15.38;;;22.10;28.70;;;;;;6163272;28;83261;-66
2021/01/30 03:24:08;;;;;;;32.70;14.98;;;22.10;28.80;;;;;;6149260;28;84920;-65
2021/01/30 03:27:09;;;;;;;26.80;13.77;;;22.00;28.80;;;;;;6159365;28;83229;-65
2021/01/30 03:30:10;;;;;;;28.67;14.45;;;22.00;28.70;;;;;;6171664;28;84158;-65
2021/01/30 03:33:10;;;;;;;28.45;15.18;;;22.00;28.70;;;;;;6163888;27;84412;-66
2021/01/30 03:36:11;;;;;;;27.63;14.48;;;22.00;28.60;;;;;;6175351;27;83862;-66
2021/01/30 03:39:11;;;;;;;28.35;15.25;;;22.00;28.70;;;;;;6164082;27;83158;-65
2021/01/30 03:42:12;;;;;;;28.65;14.75;;;22.00;28.70;;;;;;6162804;28;83504;-65
2021/01/30 03:45:12;;;;;;;31.67;14.43;;;22.00;28.60;;;;;;6163817;28;83634;-66
2021/01/30 03:48:13;;;;;;;28.70;15.02;;;22.00;28.60;;;;;;6174406;27;83432;-65
2021/01/30 03:51:13;;;;;;;30.52;16.02;;;22.00;28.60;;;;;;6173233;28;83844;-65
2021/01/30 03:54:14;;;;;;;29.88;15.35;;;22.10;28.80;;;;;;6169987;28;83428;-65
2021/01/30 03:57:14;;;;;;;26.83;14.98;;;22.00;28.60;;;;;;6169389;28;83490;-65
2021/01/30 04:00:15;;;;;;;29.58;15.38;;;22.00;28.70;;;;;;6153048;28;83611;-65
2021/01/30 04:03:15;;;;;;;32.85;15.75;;;22.00;28.60;;;;;;6147774;28;86232;-65
2021/01/30 04:06:16;;;;;;;28.45;14.85;;;22.00;28.60;;;;;;6153842;28;82946;-65
2021/01/30 04:09:17;;;;;;;35.28;16.20;;;22.00;28.60;;;;;;6174518;27;83382;-65
2021/01/30 04:12:17;;;;;;;33.00;15.75;;;22.00;28.80;;;;;;6171009;27;83177;-67
2021/01/30 04:15:18;;;;;;;30.52;15.38;;;22.00;28.80;;;;;;6170092;27;83340;-65
2021/01/30 04:18:18;;;;;;;27.98;14.93;;;22.00;28.90;;;;;;6172969;28;84088;-65
2021/01/30 04:21:19;;;;;;;25.42;13.88;;;22.00;29.00;;;;;;6173841;28;84088;-65
2021/01/30 04:24:19;;;;;;;27.50;14.35;;;22.00;29.10;;;;;;6159314;27;82952;-65
2021/01/30 04:27:20;;;;;;;33.42;16.55;;;22.00;29.20;;;;;;6150017;28;83553;-65
2021/01/30 04:30:20;;;;;;;28.30;15.05;;;22.10;29.30;;;;;;6140120;28;83461;-65
2021/01/30 04:33:21;;;;;;;26.98;15.18;;;22.00;29.30;;;;;;6171221;28;83199;-65
2021/01/30 04:36:21;;;;;;;33.28;15.27;;;22.10;29.40;;;;;;6150409;28;84286;-66
2021/01/30 04:39:22;;;;;;;27.70;15.15;;;22.00;29.90;;;;;;6145184;28;83529;-65
2021/01/30 04:42:22;;;;;;;32.90;16.40;;;22.00;29.40;;;;;;6162293;28;83362;-65
2021/01/30 04:45:23;;;;;;;37.35;17.42;;;22.00;29.40;;;;;;6172715;28;83668;-66
2021/01/30 04:48:24;;;;;;;33.03;15.45;;;22.00;29.30;;;;;;6167287;28;84274;-66
2021/01/30 04:51:24;;;;;;;28.38;15.05;;;22.00;29.40;;;;;;6172874;28;83983;-65
2021/01/30 04:54:29;;;;;;;33.65;16.20;;;22.00;29.30;;;;;;6169336;27;85001;-64
2021/01/30 04:57:29;;;;;;;30.17;16.10;;;22.00;29.30;;;;;;6174155;28;83308;-65
2021/01/30 05:00:30;;;;;;;28.33;14.07;;;22.00;29.40;;;;;;6161221;28;83325;-65
2021/01/30 05:03:30;;;;;;;30.25;16.33;;;22.00;29.80;;;;;;6174082;27;86711;-65
2021/01/30 05:06:31;;;;;;;28.42;15.32;;;22.00;29.30;;;;;;6174554;27;83258;-65
2021/01/30 05:09:31;;;;;;;32.55;16.25;;;22.00;29.30;;;;;;6146560;27;83106;-65
2021/01/30 05:12:32;;;;;;;32.90;16.05;;;22.00;29.30;;;;;;6160251;28;85564;-65
2021/01/30 05:15:32;;;;;;;24.58;13.75;;;22.10;29.30;;;;;;6151155;27;83016;-65
2021/01/30 05:18:33;;;;;;;23.75;12.95;;;22.10;29.80;;;;;;6161292;28;83991;-65
2021/01/30 05:21:34;;;;;;;30.05;14.57;;;22.20;29.90;;;;;;6169149;27;83150;-65
2021/01/30 05:24:34;;;;;;;29.02;15.30;;;22.20;29.30;;;;;;6161366;28;83338;-65
2021/01/30 05:27:35;;;;;;;28.85;15.70;;;22.20;28.90;;;;;;6153938;27;83659;-65
2021/01/30 05:30:35;;;;;;;30.40;15.82;;;22.20;28.80;;;;;;6167765;28;83315;-65
2021/01/30 05:33:36;;;;;;;30.52;16.30;;;22.20;28.60;;;;;;6166571;27;83984;-65
2021/01/30 05:36:37;;;;;;;29.27;16.58;;;22.30;28.50;;;;;;6161912;28;83660;-65
2021/01/30 05:39:37;;;;;;;28.63;15.57;;;22.30;28.30;;;;;;6149590;28;83299;-68
2021/01/30 05:42:38;;;;;;;33.85;17.10;;;22.30;28.30;;;;;;6163443;28;83349;-68
2021/01/30 05:45:38;;;;;;;32.53;16.77;;;22.40;28.50;;;;;;6173196;28;83556;-68
2021/01/30 05:48:39;;;;;;;36.72;18.65;;;22.40;28.50;;;;;;6180971;27;85495;-68
2021/01/30 05:51:39;;;;;;;29.70;17.10;;;22.40;28.10;;;;;;6180743;27;83435;-71
2021/01/30 05:54:40;;;;;;;34.42;17.52;;;22.40;28.20;;;;;;6159920;28;84169;-71
2021/01/30 05:57:40;;;;;;;31.88;16.63;;;22.50;28.80;;;;;;6160564;28;83374;-68
2021/01/30 06:00:41;;;;;;;34.78;18.42;;;22.50;29.20;;;;;;6169290;28;83217;-66
2021/01/30 06:03:41;;;;;;;33.92;16.88;;;22.50;28.80;;;;;;6175834;27;83419;-67
2021/01/30 06:06:42;;;;;;;32.95;17.63;;;22.50;29.50;;;;;;6170233;28;83189;-68
2021/01/30 06:09:42;;;;;;;34.20;17.35;;;22.60;29.80;;;;;;6175022;27;83323;-68
2021/01/30 06:12:43;;;;;;;33.30;18.15;;;22.60;29.40;;;;;;6175281;27;83446;-65
2021/01/30 06:15:43;;;;;;;50.10;22.35;;;22.60;29.30;;;;;;6180439;28;83429;-65
2021/01/30 06:18:44;;;;;;;595.22;172.52;;;22.70;29.60;;;;;;6183862;28;83124;-65
2021/01/30 06:21:44;;;;;;;724.20;250.02;;;22.70;29.70;;;;;;6164333;27;86206;-64
2021/01/30 06:24:45;;;;;;;849.70;286.35;;;22.80;29.90;;;;;;6149727;28;85840;-64
2021/01/30 06:27:46;;;;;;;709.47;231.25;;;22.80;30.10;;;;;;6166038;28;85850;-65
2021/01/30 06:30:46;;;;;;;597.45;188.30;;;22.80;29.80;;;;;;6159662;27;85419;-65
2021/01/30 06:33:47;;;;;;;548.70;163.98;;;22.80;29.90;;;;;;6165652;28;86776;-65
2021/01/30 06:36:47;;;;;;;497.23;147.15;;;22.90;30.40;;;;;;6149495;28;85741;-64
2021/01/30 06:39:48;;;;;;;452.90;132.32;;;22.90;30.70;;;;;;6157357;27;85605;-66
2021/01/30 06:42:48;;;;;;;390.55;123.35;;;22.90;30.30;;;;;;6149352;28;86393;-65
2021/01/30 06:45:49;;;;;;;399.00;127.68;;;23.00;30.70;;;;;;6160896;28;86115;-65
2021/01/30 06:48:50;;;;;;;368.17;120.93;;;23.00;31.80;;;;;;6170797;27;85738;-65
2021/01/30 06:51:50;;;;;;;356.48;127.00;;;23.00;31.30;;;;;;6172782;28;85999;-64
2021/01/30 06:54:51;;;;;;;314.05;108.05;;;23.10;32.20;;;;;;6174197;28;85787;-65
2021/01/30 06:57:51;;;;;;;328.20;113.70;;;23.10;31.50;;;;;;6180391;27;86186;-65
2021/01/30 07:00:52;;;;;;;282.75;110.40;;;23.20;31.90;;;;;;6164513;28;86290;-66
2021/01/30 07:03:52;;;;;;;277.88;106.72;;;23.20;32.10;;;;;;6170985;28;85601;-66
2021/01/30 07:06:53;;;;;;;264.48;102.22;;;23.20;32.30;;;;;;6176782;27;86289;-67
2021/01/30 07:09:53;;;;;;;256.88;99.47;;;23.20;32.10;;;;;;6172252;28;85997;-66
2021/01/30 07:12:54;;;;;;;225.80;91.38;;;23.20;32.00;;;;;;6179625;28;85234;-66
2021/01/30 07:15:54;;;;;;;225.95;88.68;;;23.20;32.30;;;;;;6160606;28;83586;-66
2021/01/30 07:18:55;;;;;;;213.05;86.47;;;23.20;31.90;;;;;;6169833;28;83642;-65
2021/01/30 07:21:56;;;;;;;192.00;78.63;;;23.20;31.80;;;;;;6164513;28;84098;-66
2021/01/30 07:24:56;;;;;;;168.27;72.20;;;23.30;31.80;;;;;;6160705;28;83345;-66
2021/01/30 07:27:57;;;;;;;162.93;70.82;;;23.30;31.50;;;;;;6143659;28;83243;-66
2021/01/30 07:30:57;;;;;;;165.15;67.20;;;23.30;31.50;;;;;;6151713;28;85598;-67
2021/01/30 07:33:58;;;;;;;155.05;68.72;;;23.30;31.40;;;;;;6144632;28;84745;-66
2021/01/30 07:36:58;;;;;;;150.73;64.70;;;23.30;31.40;;;;;;6160686;28;84316;-64
2021/01/30 07:39:59;;;;;;;144.35;62.28;;;23.30;31.20;;;;;;6158971;28;83627;-69
2021/01/30 07:42:59;;;;;;;131.50;57.13;;;23.20;30.90;;;;;;6169639;28;83098;-65
2021/01/30 07:46:00;;;;;;;127.10;55.35;;;23.20;30.60;;;;;;6173765;27;84130;-65
2021/01/30 07:49:00;;;;;;;120.13;53.28;;;23.20;30.50;;;;;;6176304;27;83276;-65
2021/01/30 07:52:01;;;;;;;115.68;51.17;;;23.20;31.20;;;;;;6149721;28;83311;-67
2021/01/30 07:55:03;;;;;;;111.32;51.20;;;23.20;30.60;;;;;;6151230;28;84647;-65
2021/01/30 07:58:03;;;;;;;104.00;46.58;;;23.20;30.70;;;;;;6157135;28;83471;-64
2021/01/30 08:01:04;;;;;;;111.35;48.45;;;23.20;30.40;;;;;;6153929;28;85084;-66
2021/01/30 08:04:05;;;;;;;101.47;44.83;;;23.20;30.60;;;;;;6163622;28;83924;-65
2021/01/30 08:07:08;;;;;;;102.75;43.17;;;23.20;31.40;;;;;;6177090;28;83234;-68
2021/01/30 08:10:08;;;;;;;88.38;41.25;;;23.10;31.40;;;;;;6143947;27;84484;-68
2021/01/30 08:13:09;;;;;;;85.15;38.55;;;23.20;30.90;;;;;;6147530;28;83463;-64
2021/01/30 08:16:09;;;;;;;86.88;38.80;;;23.10;31.10;;;;;;6131392;28;85160;-63
2021/01/30 08:19:10;;;;;;;77.78;38.22;;;23.20;31.50;;;;;;6126490;28;83167;-65
2021/01/30 08:22:11;;;;;;;79.38;36.95;;;23.20;31.20;;;;;;6128226;28;83797;-66
2021/01/30 08:25:11;;;;;;;81.32;36.80;;;23.10;31.00;;;;;;6131194;28;83438;-63
2021/01/30 08:28:12;;;;;;;65.88;34.15;;;23.10;31.50;;;;;;6130146;28;83477;-64
2021/01/30 08:31:12;;;;;;;67.97;33.53;;;23.10;31.30;;;;;;6130537;28;85434;-65
2021/01/30 08:34:13;;;;;;;71.45;32.45;;;23.10;31.30;;;;;;6126479;28;83389;-63
2021/01/30 08:37:13;;;;;;;75.47;31.98;;;23.10;31.00;;;;;;6126441;28;83285;-63
2021/01/30 08:40:14;;;;;;;65.60;31.33;;;23.20;30.90;;;;;;6124174;28;92577;-62
2021/01/30 08:43:14;;;;;;;66.95;32.28;;;23.10;30.80;;;;;;6147592;28;82941;-65
2021/01/30 08:46:15;;;;;;;57.03;30.58;;;23.10;31.00;;;;;;6150315;28;83503;-66
2021/01/30 08:49:15;;;;;;;54.80;28.50;;;23.10;31.10;;;;;;6154693;28;85538;-64
2021/01/30 08:52:17;;;;;;;61.90;30.17;;;23.10;30.60;;;;;;6149774;28;82851;-64
2021/01/30 08:55:17;;;;;;;62.00;29.70;;;23.10;31.00;;;;;;6141727;28;83068;-65
2021/01/30 08:58:18;;;;;;;63.95;29.95;;;23.00;30.60;;;;;;6130978;28;83947;-65
2021/01/30 09:01:18;;;;;;;55.20;30.80;;;23.00;30.80;;;;;;6132306;28;83233;-66
2021/01/30 09:04:19;;;;;;;56.60;29.15;;;23.00;30.60;;;;;;6147657;28;83689;-65
2021/01/30 09:07:19;;;;;;;56.58;30.27;;;23.00;30.50;;;;;;6140568;27;83331;-65
2021/01/30 09:10:20;;;;;;;58.17;30.75;;;23.00;30.40;;;;;;6142154;28;83998;-63
2021/01/30 09:13:20;;;;;;;51.42;29.02;;;23.00;30.20;;;;;;6149221;28;83223;-65
2021/01/30 09:16:21;;;;;;;50.72;27.90;;;23.00;30.00;;;;;;6145475;28;83487;-63
2021/01/30 09:19:21;;;;;;;52.20;28.83;;;23.00;30.20;;;;;;6158028;28;83263;-62
2021/01/30 09:22:22;;;;;;;53.55;29.33;;;23.10;30.10;;;;;;6128524;28;83945;-64
2021/01/30 09:25:22;;;;;;;52.70;29.83;;;23.10;30.40;;;;;;6144708;28;84656;-65
2021/01/30 09:28:23;;;;;;;59.03;30.75;;;23.00;30.70;;;;;;6154019;28;82917;-65
2021/01/30 09:31:23;;;;;;;54.28;29.05;;;23.10;30.30;;;;;;6132571;28;83740;-64
2021/01/30 09:34:24;;;;;;;54.22;27.58;;;23.00;30.00;;;;;;6133442;28;83275;-65
2021/01/30 09:37:25;;;;;;;51.85;29.60;;;23.00;29.90;;;;;;6134001;28;83238;-64
2021/01/30 09:40:25;;;;;;;50.25;28.13;;;23.00;29.90;;;;;;6130863;28;83323;-63
2021/01/30 09:43:26;;;;;;;48.38;26.65;;;23.00;30.20;;;;;;6152653;28;83923;-63
2021/01/30 09:46:26;;;;;;;53.60;27.92;;;23.00;30.00;;;;;;6158709;28;83059;-63
2021/01/30 09:49:27;;;;;;;49.38;27.63;;;22.90;30.00;;;;;;6154313;28;83410;-64
2021/01/30 09:52:28;;;;;;;44.55;25.75;;;23.00;29.80;;;;;;6157278;28;83060;-64
2021/01/30 09:55:28;;;;;;;41.33;24.27;;;22.90;29.80;;;;;;6153507;28;83244;-64
2021/01/30 09:58:29;;;;;;;41.95;24.63;;;22.90;29.80;;;;;;6142312;28;84147;-64
2021/01/30 10:01:29;;;;;;;39.90;22.85;;;22.90;30.00;;;;;;6143637;28;83244;-64
2021/01/30 10:04:30;;;;;;;40.80;23.63;;;22.90;30.20;;;;;;6148571;28;84062;-63
2021/01/30 10:07:30;;;;;;;50.60;23.48;;;23.00;30.20;;;;;;6148768;28;83363;-64
2021/01/30 10:10:31;;;;;;;40.78;21.58;;;23.00;30.10;;;;;;6150616;28;83039;-64
2021/01/30 10:13:32;;;;;;;35.78;18.52;;;23.00;30.00;;;;;;6148379;28;83732;-64
2021/01/30 10:16:32;;;;;;;33.95;19.35;;;23.00;30.00;;;;;;6153628;28;85353;-64
2021/01/30 10:19:33;;;;;;;30.95;18.65;;;23.00;30.00;;;;;;6151016;28;83538;-64
2021/01/30 10:22:33;;;;;;;34.80;17.95;;;23.00;30.00;;;;;;6133965;28;84236;-64
2021/01/30 10:25:34;;;;;;;34.05;17.15;;;23.00;30.30;;;;;;6151514;28;87589;-64
2021/01/30 10:28:34;;;;;;;31.30;16.90;;;23.00;29.90;;;;;;6149993;28;83457;-64
2021/01/30 10:31:35;;;;;;;29.05;16.50;;;23.00;30.00;;;;;;6142924;28;83568;-64
2021/01/30 10:34:35;;;;;;;30.55;17.02;;;23.10;30.00;;;;;;6154898;28;82982;-63
2021/01/30 10:37:36;;;;;;;32.53;17.30;;;23.10;29.70;;;;;;6144569;28;84200;-65
2021/01/30 10:40:36;;;;;;;29.35;15.90;;;23.10;29.80;;;;;;6138093;28;83590;-64
2021/01/30 10:43:37;;;;;;;30.75;16.55;;;23.10;30.00;;;;;;6131031;28;83729;-63
2021/01/30 10:46:40;;;;;;;30.10;15.20;;;23.20;30.40;;;;;;6143666;28;84405;-64
2021/01/30 10:49:40;;;;;;;27.92;15.13;;;23.20;30.00;;;;;;6152721;28;83392;-66
2021/01/30 10:52:41;;;;;;;29.25;15.60;;;23.30;30.30;;;;;;6129277;28;83436;-65
2021/01/30 10:55:42;;;;;;;25.02;14.40;;;23.30;30.30;;;;;;6128404;28;83670;-65
2021/01/30 10:58:44;;;;;;;25.17;14.43;;;23.40;30.50;;;;;;6150246;28;83799;-65
2021/01/30 11:01:44;;;;;;;22.52;12.63;;;23.40;31.20;;;;;;6146910;28;83441;-65
2021/01/30 11:04:45;;;;;;;20.27;12.00;;;23.40;30.90;;;;;;6152527;28;84680;-65
2021/01/30 11:07:45;;;;;;;21.55;11.52;;;23.40;30.90;;;;;;6154606;27;84128;-65
2021/01/30 11:10:47;;;;;;;19.42;11.23;;;23.40;30.90;;;;;;6131075;28;83072;-65
2021/01/30 11:13:48;;;;;;;17.40;10.48;;;23.40;30.80;;;;;;6156435;28;83132;-68
2021/01/30 11:16:48;;;;;;;17.35;10.88;;;23.50;31.00;;;;;;6160099;28;83073;-69
2021/01/30 11:19:49;;;;;;;16.17;9.18;;;23.50;30.50;;;;;;6155875;27;84388;-66
2021/01/30 11:22:49;;;;;;;17.08;9.10;;;23.40;30.20;;;;;;6136252;28;87332;-68
2021/01/30 11:25:50;;;;;;;17.13;9.77;;;23.40;30.30;;;;;;6156639;28;81513;-67
2021/01/30 11:28:50;;;;;;;17.15;7.80;;;23.40;30.40;;;;;;6153089;28;80494;-67
2021/01/30 11:31:51;;;;;;;13.68;8.63;;;23.50;30.80;;;;;;6157455;28;80929;-67
2021/01/30 11:34:51;;;;;;;13.10;8.45;;;23.50;31.00;;;;;;6155977;28;80661;-67
2021/01/30 11:37:52;;;;;;;16.05;8.50;;;23.50;31.50;;;;;;6145849;28;80767;-67
2021/01/30 11:40:52;;;;;;;14.38;8.90;;;23.50;31.70;;;;;;6131490;28;80980;-67
2021/01/30 11:43:53;;;;;;;17.50;9.18;;;23.50;31.80;;;;;;6147239;28;80872;-67
2021/01/30 11:46:54;;;;;;;23.33;11.55;;;23.50;32.10;;;;;;6151487;28;81973;-67
2021/01/30 11:49:54;;;;;;;22.00;11.52;;;23.50;32.20;;;;;;6151413;28;87230;-67
2021/01/30 11:52:55;;;;;;;21.30;11.35;;;23.50;32.30;;;;;;6127612;28;83006;-66
2021/01/30 11:55:55;;;;;;;21.42;12.18;;;23.50;31.90;;;;;;6124268;28;87212;-67
2021/01/30 11:58:56;;;;;;;27.40;13.52;;;23.50;32.60;;;;;;6153737;28;83581;-65
2021/01/30 12:01:56;;;;;;;25.08;13.43;;;23.40;31.70;;;;;;6124203;28;85253;-65
2021/01/30 12:04:57;;;;;;;30.55;14.77;;;23.40;31.50;;;;;;6129023;28;83608;-66
2021/01/30 12:07:57;;;;;;;27.20;15.60;;;23.30;31.30;;;;;;6148351;28;83413;-67
2021/01/30 12:10:58;;;;;;;34.22;16.58;;;23.40;30.90;;;;;;6148714;28;83017;-65
2021/01/30 12:13:58;;;;;;;30.67;16.50;;;23.30;31.00;;;;;;6153231;28;83383;-66
2021/01/30 12:16:59;;;;;;;32.95;17.33;;;23.30;30.70;;;;;;6148407;27;85556;-66
2021/01/30 12:20:00;;;;;;;30.10;16.88;;;23.30;30.30;;;;;;6149872;28;83324;-66
2021/01/30 12:23:01;;;;;;;39.80;18.25;;;23.30;30.50;;;;;;6124978;28;83715;-66
2021/01/30 12:26:01;;;;;;;33.28;16.73;;;23.30;30.10;;;;;;6127083;28;83519;-66
2021/01/30 12:29:02;;;;;;;28.80;16.63;;;23.30;30.10;;;;;;6150441;28;83400;-66
2021/01/30 12:32:02;;;;;;;30.92;18.30;;;23.30;30.00;;;;;;6151898;28;84072;-66
2021/01/30 12:35:03;;;;;;;33.13;18.15;;;23.30;29.80;;;;;;6154276;28;83349;-66
2021/01/30 12:38:03;;;;;;;36.78;17.63;;;23.30;29.80;;;;;;6153819;28;83263;-66
2021/01/30 12:41:06;;;;;;;31.95;17.98;;;23.30;30.00;;;;;;6109367;28;85880;-66
2021/01/30 12:44:06;;;;;;;29.02;17.23;;;23.20;29.90;;;;;;6149288;28;84056;-66
2021/01/30 12:47:07;;;;;;;32.15;17.42;;;23.20;30.00;;;;;;6101384;28;82850;-66
2021/01/30 12:50:07;;;;;;;26.88;17.23;;;23.20;30.00;;;;;;6131612;28;85027;-65
2021/01/30 12:53:08;;;;;;;33.15;16.38;;;23.20;30.00;;;;;;6152564;28;85800;-66
2021/01/30 12:56:08;;;;;;;29.20;16.40;;;23.20;30.00;;;;;;6149967;28;83486;-67
2021/01/30 12:59:09;;;;;;;32.53;16.20;;;23.20;29.80;;;;;;6129859;28;83622;-67
2021/01/30 13:02:09;;;;;;;27.42;15.75;;;23.30;30.00;;;;;;6147922;28;82956;-68
2021/01/30 13:05:10;;;;;;;27.10;15.50;;;23.20;29.70;;;;;;6144572;28;82975;-67
2021/01/30 13:08:10;;;;;;;27.70;15.23;;;23.20;29.60;;;;;;6152639;28;86549;-67
2021/01/30 13:11:11;;;;;;;27.13;15.23;;;23.20;29.60;;;;;;6151864;28;83289;-71
2021/01/30 13:14:11;;;;;;;29.55;14.88;;;23.10;29.50;;;;;;6133489;28;83509;-72
2021/01/30 13:17:12;;;;;;;25.83;14.82;;;23.10;29.50;;;;;;6127514;28;83464;-67
2021/01/30 13:20:13;;;;;;;25.70;14.52;;;23.00;29.30;;;;;;6148269;28;84438;-68
2021/01/30 13:23:13;;;;;;;28.90;16.45;;;23.00;29.20;;;;;;6148436;28;83327;-72
2021/01/30 13:26:14;;;;;;;29.35;16.42;;;23.00;29.30;;;;;;6129465;28;83514;-72
2021/01/30 13:29:14;;;;;;;26.63;15.73;;;23.00;29.30;;;;;;6148738;28;85412;-68
2021/01/30 13:32:15;;;;;;;32.63;17.65;;;23.00;29.30;;;;;;6142316;28;83218;-66
2021/01/30 13:35:15;;;;;;;29.70;16.85;;;23.00;29.60;;;;;;6148355;28;83723;-68
2021/01/30 13:38:16;;;;;;;30.65;15.98;;;23.00;29.60;;;;;;6134982;28;83977;-68
2021/01/30 13:41:17;;;;;;;31.58;17.67;;;23.00;29.90;;;;;;6125192;28;83483;-69
2021/01/30 13:44:17;;;;;;;27.63;16.40;;;23.00;29.90;;;;;;6154587;28;83641;-67
2021/01/30 13:47:18;;;;;;;28.13;15.98;;;23.00;29.80;;;;;;6153650;28;84180;-68
2021/01/30 13:50:19;;;;;;;29.15;15.32;;;23.00;29.70;;;;;;6160772;28;84539;-66
2021/01/30 13:53:19;;;;;;;26.20;15.07;;;23.00;29.70;;;;;;6148009;28;83175;-68
2021/01/30 13:56:20;;;;;;;29.20;15.07;;;23.00;29.90;;;;;;6117385;28;83852;-67
2021/01/30 13:59:20;;;;;;;26.65;14.90;;;23.00;29.80;;;;;;6150926;27;84597;-69
2021/01/30 14:02:22;;;;;;;21.98;14.23;;;23.00;29.60;;;;;;6152082;28;83297;-68
2021/01/30 14:05:27;;;;;;;25.27;14.27;;;23.00;29.50;;;;;;6147335;28;85609;-66
2021/01/30 14:08:31;;;;;;;25.25;14.30;;;23.00;29.80;;;;;;6140606;28;83373;-66
2021/01/30 14:11:32;;;;;;;26.98;14.65;;;23.00;30.10;;;;;;6142793;28;83474;-66
2021/01/30 14:14:32;;;;;;;24.48;14.52;;;23.10;30.00;;;;;;6131591;28;83775;-63
2021/01/30 14:17:33;;;;;;;24.95;14.93;;;23.10;31.50;;;;;;6148186;28;86158;-66
2021/01/30 14:20:33;;;;;;;23.88;13.73;;;23.20;31.40;;;;;;6130342;28;83763;-64
2021/01/30 14:23:34;;;;;;;21.42;13.20;;;23.30;31.20;;;;;;6129857;28;82820;-65
2021/01/30 14:26:37;;;;;;;23.00;13.73;;;23.30;30.80;;;;;;6147517;28;83212;-63
2021/01/30 14:29:38;;;;;;;22.17;12.80;;;23.30;30.60;;;;;;6125146;28;83193;-64
2021/01/30 14:32:39;;;;;;;19.88;12.60;;;23.40;31.70;;;;;;6129773;28;83894;-65
2021/01/30 14:35:39;;;;;;;20.25;12.75;;;23.40;31.10;;;;;;6145183;28;83574;-65
2021/01/30 14:38:40;;;;;;;18.92;11.70;;;23.40;30.70;;;;;;6132605;28;84542;-65
2021/01/30 14:41:40;;;;;;;22.67;12.57;;;23.40;30.90;;;;;;6149439;28;83257;-64
2021/01/30 14:44:41;;;;;;;20.92;12.50;;;23.40;30.80;;;;;;6150032;28;83996;-65
2021/01/30 14:47:42;;;;;;;23.98;13.25;;;23.40;30.60;;;;;;6148997;28;82945;-65
2021/01/30 14:50:42;;;;;;;19.02;11.60;;;23.50;30.40;;;;;;6148766;28;83319;-64
2021/01/30 14:53:43;;;;;;;22.70;11.95;;;23.50;30.20;;;;;;6152803;28;84350;-64
2021/01/30 14:56:44;;;;;;;20.50;12.30;;;23.50;30.20;;;;;;6125550;28;86683;-69
2021/01/30 14:59:47;;;;;;;18.02;11.02;;;23.50;30.00;;;;;;6116595;28;85946;-69
2021/01/30 15:02:47;;;;;;;17.90;10.85;;;23.60;30.00;;;;;;6108190;28;84022;-63
2021/01/30 15:05:48;;;;;;;18.02;10.65;;;23.50;29.90;;;;;;6153738;28;84328;-63
2021/01/30 15:08:48;;;;;;;18.15;10.88;;;23.50;29.90;;;;;;6143372;28;82908;-63
2021/01/30 15:11:49;;;;;;;21.02;11.85;;;23.50;29.80;;;;;;6131897;28;86426;-65
2021/01/30 15:14:49;;;;;;;17.30;10.57;;;23.50;29.70;;;;;;6128417;27;83368;-65